sensor_id;sensor_type;location;lat;lon;timestamp;P1;durP1;ratioP1;P2;durP2;ratioP2
44919;SDS011;30655;53.094;6.072;2022-09-21T00:02:43;3.13;;;2.53;;
44919;SDS011;30655;53.094;6.072;2022-09-21T00:26:45;2.90;;;2.70;;
44919;SDS011;30655;53.094;6.072;2022-09-21T00:33:05;3.40;;;3.10;;
44919;SDS011;30655;53.094;6.072;2022-09-21T00:36:12;2.42;;;2.33;;
44919;SDS011;30655;53.094;6.072;2022-09-21T00:53:18;3.47;;;2.88;;
44919;SDS011;30655;53.094;6.072;2022-09-21T00:56:25;6.05;;;3.13;;
44919;SDS011;30655;53.094;6.072;2022-09-21T01:47:17;4.50;;;2.78;;
44919;SDS011;30655;53.094;6.072;2022-09-21T02:08:33;3.13;;;2.88;;
44919;SDS011;30655;53.094;6.072;2022-09-21T02:21:22;5.13;;;2.67;;
44919;SDS011;30655;53.094;6.072;2022-09-21T02:26:32;6.57;;;2.85;;
44919;SDS011;30655;53.094;6.072;2022-09-21T02:32:14;5.22;;;3.20;;
44919;SDS011;30655;53.094;6.072;2022-09-21T02:50:18;3.58;;;3.28;;
44919;SDS011;30655;53.094;6.072;2022-09-21T03:44:30;3.50;;;2.90;;
44919;SDS011;30655;53.094;6.072;2022-09-21T04:10:49;4.90;;;3.05;;
44919;SDS011;30655;53.094;6.072;2022-09-21T04:17:20;5.55;;;2.95;;
44919;SDS011;30655;53.094;6.072;2022-09-21T04:20:42;4.25;;;2.80;;
44919;SDS011;30655;53.094;6.072;2022-09-21T04:33:09;4.15;;;3.10;;
44919;SDS011;30655;53.094;6.072;2022-09-21T04:38:49;5.97;;;2.90;;
44919;SDS011;30655;53.094;6.072;2022-09-21T04:41:46;6.00;;;2.47;;
44919;SDS011;30655;53.094;6.072;2022-09-21T04:44:33;2.75;;;2.50;;
44919;SDS011;30655;53.094;6.072;2022-09-21T04:54:21;3.92;;;3.00;;
44919;SDS011;30655;53.094;6.072;2022-09-21T04:57:40;4.28;;;2.60;;
44919;SDS011;30655;53.094;6.072;2022-09-21T05:03:38;3.72;;;2.45;;
44919;SDS011;30655;53.094;6.072;2022-09-21T05:23:24;3.90;;;2.80;;
44919;SDS011;30655;53.094;6.072;2022-09-21T05:26:16;4.68;;;2.90;;
44919;SDS011;30655;53.094;6.072;2022-09-21T05:28:51;3.30;;;2.85;;
44919;SDS011;30655;53.094;6.072;2022-09-21T05:34:47;3.95;;;2.20;;
44919;SDS011;30655;53.094;6.072;2022-09-21T05:37:56;2.53;;;2.33;;
44919;SDS011;30655;53.094;6.072;2022-09-21T05:40:46;3.28;;;2.70;;
44919;SDS011;30655;53.094;6.072;2022-09-21T05:46:08;2.85;;;2.65;;
44919;SDS011;30655;53.094;6.072;2022-09-21T05:48:55;4.18;;;2.50;;
44919;SDS011;30655;53.094;6.072;2022-09-21T05:51:43;4.68;;;3.20;;
44919;SDS011;30655;53.094;6.072;2022-09-21T05:54:56;2.53;;;2.30;;
44919;SDS011;30655;53.094;6.072;2022-09-21T05:57:36;2.33;;;2.22;;
44919;SDS011;30655;53.094;6.072;2022-09-21T06:00:14;4.00;;;2.50;;
44919;SDS011;30655;53.094;6.072;2022-09-21T06:02:58;2.78;;;2.53;;
44919;SDS011;30655;53.094;6.072;2022-09-21T06:05:51;3.55;;;2.63;;
44919;SDS011;30655;53.094;6.072;2022-09-21T06:08:20;2.75;;;2.55;;
44919;SDS011;30655;53.094;6.072;2022-09-21T06:10:48;3.28;;;2.95;;
44919;SDS011;30655;53.094;6.072;2022-09-21T06:13:23;2.92;;;2.55;;
44919;SDS011;30655;53.094;6.072;2022-09-21T06:16:00;3.35;;;2.38;;
44919;SDS011;30655;53.094;6.072;2022-09-21T06:18:35;4.03;;;2.50;;
44919;SDS011;30655;53.094;6.072;2022-09-21T06:21:05;4.32;;;2.63;;
44919;SDS011;30655;53.094;6.072;2022-09-21T06:23:34;3.53;;;2.55;;
44919;SDS011;30655;53.094;6.072;2022-09-21T06:26:04;5.63;;;2.55;;
44919;SDS011;30655;53.094;6.072;2022-09-21T06:28:32;3.17;;;2.88;;
44919;SDS011;30655;53.094;6.072;2022-09-21T06:31:02;5.60;;;3.47;;
44919;SDS011;30655;53.094;6.072;2022-09-21T06:33:36;5.50;;;3.60;;
44919;SDS011;30655;53.094;6.072;2022-09-21T06:36:11;4.47;;;2.97;;
44919;SDS011;30655;53.094;6.072;2022-09-21T06:38:46;5.80;;;3.40;;
44919;SDS011;30655;53.094;6.072;2022-09-21T06:41:16;6.25;;;3.05;;
44919;SDS011;30655;53.094;6.072;2022-09-21T06:43:51;4.20;;;3.80;;
44919;SDS011;30655;53.094;6.072;2022-09-21T06:46:24;9.25;;;6.45;;
44919;SDS011;30655;53.094;6.072;2022-09-21T06:48:54;29.02;;;18.23;;
44919;SDS011;30655;53.094;6.072;2022-09-21T06:51:24;10.80;;;7.43;;
44919;SDS011;30655;53.094;6.072;2022-09-21T06:53:53;8.07;;;4.25;;
44919;SDS011;30655;53.094;6.072;2022-09-21T06:56:27;4.20;;;3.80;;
44919;SDS011;30655;53.094;6.072;2022-09-21T07:01:45;6.38;;;3.65;;
44919;SDS011;30655;53.094;6.072;2022-09-21T07:04:23;5.50;;;4.93;;
44919;SDS011;30655;53.094;6.072;2022-09-21T07:07:00;5.65;;;4.28;;
44919;SDS011;30655;53.094;6.072;2022-09-21T07:09:30;4.78;;;3.50;;
44919;SDS011;30655;53.094;6.072;2022-09-21T07:12:26;5.45;;;4.00;;
44919;SDS011;30655;53.094;6.072;2022-09-21T07:15:11;8.48;;;3.72;;
44919;SDS011;30655;53.094;6.072;2022-09-21T07:17:42;6.57;;;3.88;;
44919;SDS011;30655;53.094;6.072;2022-09-21T07:20:10;7.28;;;3.90;;
44919;SDS011;30655;53.094;6.072;2022-09-21T07:22:41;6.57;;;3.70;;
44919;SDS011;30655;53.094;6.072;2022-09-21T07:25:12;7.55;;;3.60;;
44919;SDS011;30655;53.094;6.072;2022-09-21T07:27:44;8.73;;;4.72;;
44919;SDS011;30655;53.094;6.072;2022-09-21T07:30:26;9.10;;;4.35;;
44919;SDS011;30655;53.094;6.072;2022-09-21T07:32:55;6.75;;;4.60;;
44919;SDS011;30655;53.094;6.072;2022-09-21T07:35:24;9.57;;;3.70;;
44919;SDS011;30655;53.094;6.072;2022-09-21T07:37:51;8.70;;;3.90;;
44919;SDS011;30655;53.094;6.072;2022-09-21T07:40:18;9.75;;;4.47;;
44919;SDS011;30655;53.094;6.072;2022-09-21T07:42:55;10.45;;;4.10;;
44919;SDS011;30655;53.094;6.072;2022-09-21T07:45:35;10.10;;;4.47;;
44919;SDS011;30655;53.094;6.072;2022-09-21T07:48:02;5.22;;;3.65;;
44919;SDS011;30655;53.094;6.072;2022-09-21T07:50:34;14.07;;;3.90;;
44919;SDS011;30655;53.094;6.072;2022-09-21T07:53:04;5.65;;;3.10;;
44919;SDS011;30655;53.094;6.072;2022-09-21T07:55:34;6.78;;;2.53;;
44919;SDS011;30655;53.094;6.072;2022-09-21T07:58:06;9.45;;;2.95;;
44919;SDS011;30655;53.094;6.072;2022-09-21T08:00:47;5.40;;;2.50;;
44919;SDS011;30655;53.094;6.072;2022-09-21T08:03:15;9.45;;;3.35;;
44919;SDS011;30655;53.094;6.072;2022-09-21T08:05:59;8.65;;;2.80;;
44919;SDS011;30655;53.094;6.072;2022-09-21T08:08:37;6.38;;;2.42;;
44919;SDS011;30655;53.094;6.072;2022-09-21T08:11:04;5.13;;;1.80;;
44919;SDS011;30655;53.094;6.072;2022-09-21T08:13:35;3.90;;;2.17;;
44919;SDS011;30655;53.094;6.072;2022-09-21T08:16:04;8.48;;;2.10;;
44919;SDS011;30655;53.094;6.072;2022-09-21T08:18:35;6.60;;;2.20;;
44919;SDS011;30655;53.094;6.072;2022-09-21T08:21:08;5.88;;;1.50;;
44919;SDS011;30655;53.094;6.072;2022-09-21T08:23:51;4.50;;;1.67;;
44919;SDS011;30655;53.094;6.072;2022-09-21T08:26:29;4.90;;;1.58;;
44919;SDS011;30655;53.094;6.072;2022-09-21T08:29:30;5.53;;;1.77;;
44919;SDS011;30655;53.094;6.072;2022-09-21T08:32:06;10.23;;;1.80;;
44919;SDS011;30655;53.094;6.072;2022-09-21T08:34:55;6.20;;;1.20;;
44919;SDS011;30655;53.094;6.072;2022-09-21T08:37:39;7.72;;;1.17;;
44919;SDS011;30655;53.094;6.072;2022-09-21T08:40:18;5.63;;;1.50;;
44919;SDS011;30655;53.094;6.072;2022-09-21T08:43:01;4.10;;;1.27;;
44919;SDS011;30655;53.094;6.072;2022-09-21T08:45:41;4.00;;;1.27;;
44919;SDS011;30655;53.094;6.072;2022-09-21T08:48:18;3.72;;;0.77;;
44919;SDS011;30655;53.094;6.072;2022-09-21T08:51:05;3.40;;;0.90;;
44919;SDS011;30655;53.094;6.072;2022-09-21T08:53:40;5.10;;;1.20;;
44919;SDS011;30655;53.094;6.072;2022-09-21T08:56:28;5.00;;;0.70;;
44919;SDS011;30655;53.094;6.072;2022-09-21T08:59:16;8.90;;;1.15;;
44919;SDS011;30655;53.094;6.072;2022-09-21T09:01:49;5.05;;;0.77;;
44919;SDS011;30655;53.094;6.072;2022-09-21T09:10:04;5.13;;;0.63;;
44919;SDS011;30655;53.094;6.072;2022-09-21T09:12:55;4.28;;;0.90;;
44919;SDS011;30655;53.094;6.072;2022-09-21T09:16:02;3.25;;;1.00;;
44919;SDS011;30655;53.094;6.072;2022-09-21T09:18:47;4.32;;;1.50;;
44919;SDS011;30655;53.094;6.072;2022-09-21T09:21:34;4.28;;;0.82;;
44919;SDS011;30655;53.094;6.072;2022-09-21T09:24:25;4.45;;;0.90;;
44919;SDS011;30655;53.094;6.072;2022-09-21T09:27:16;2.72;;;0.65;;
44919;SDS011;30655;53.094;6.072;2022-09-21T09:29:54;6.95;;;0.70;;
44919;SDS011;30655;53.094;6.072;2022-09-21T09:32:34;7.28;;;0.98;;
44919;SDS011;30655;53.094;6.072;2022-09-21T09:35:47;8.23;;;0.82;;
44919;SDS011;30655;53.094;6.072;2022-09-21T09:45:41;4.38;;;0.85;;
44919;SDS011;30655;53.094;6.072;2022-09-21T09:49:14;3.28;;;0.77;;
44919;SDS011;30655;53.094;6.072;2022-09-21T09:52:46;4.63;;;0.75;;
44919;SDS011;30655;53.094;6.072;2022-09-21T09:55:10;4.10;;;0.93;;
44919;SDS011;30655;53.094;6.072;2022-09-21T09:58:11;4.45;;;0.57;;
44919;SDS011;30655;53.094;6.072;2022-09-21T10:01:16;3.90;;;0.70;;
44919;SDS011;30655;53.094;6.072;2022-09-21T10:04:09;3.50;;;0.85;;
44919;SDS011;30655;53.094;6.072;2022-09-21T10:06:50;2.60;;;0.60;;
44919;SDS011;30655;53.094;6.072;2022-09-21T10:10:36;6.32;;;0.80;;
44919;SDS011;30655;53.094;6.072;2022-09-21T10:16:33;3.35;;;0.80;;
44919;SDS011;30655;53.094;6.072;2022-09-21T10:19:21;1.90;;;0.60;;
44919;SDS011;30655;53.094;6.072;2022-09-21T10:22:16;4.75;;;0.90;;
44919;SDS011;30655;53.094;6.072;2022-09-21T10:24:52;6.40;;;0.80;;
44919;SDS011;30655;53.094;6.072;2022-09-21T10:27:48;3.63;;;0.70;;
44919;SDS011;30655;53.094;6.072;2022-09-21T10:37:25;2.50;;;0.95;;
44919;SDS011;30655;53.094;6.072;2022-09-21T10:40:46;2.40;;;0.80;;
44919;SDS011;30655;53.094;6.072;2022-09-21T10:43:39;6.22;;;3.17;;
44919;SDS011;30655;53.094;6.072;2022-09-21T10:46:33;4.95;;;3.05;;
44919;SDS011;30655;53.094;6.072;2022-09-21T10:49:43;3.80;;;1.80;;
44919;SDS011;30655;53.094;6.072;2022-09-21T10:52:32;5.32;;;1.20;;
44919;SDS011;30655;53.094;6.072;2022-09-21T10:55:31;2.58;;;0.90;;
44919;SDS011;30655;53.094;6.072;2022-09-21T10:58:45;2.47;;;0.65;;
44919;SDS011;30655;53.094;6.072;2022-09-21T11:02:36;4.00;;;0.75;;
44919;SDS011;30655;53.094;6.072;2022-09-21T11:05:44;2.42;;;0.63;;
44919;SDS011;30655;53.094;6.072;2022-09-21T11:08:37;2.58;;;0.90;;
44919;SDS011;30655;53.094;6.072;2022-09-21T11:11:41;2.25;;;0.75;;
44919;SDS011;30655;53.094;6.072;2022-09-21T11:17:56;3.60;;;0.93;;
44919;SDS011;30655;53.094;6.072;2022-09-21T11:20:45;1.30;;;0.52;;
44919;SDS011;30655;53.094;6.072;2022-09-21T11:23:50;4.93;;;0.85;;
44919;SDS011;30655;53.094;6.072;2022-09-21T11:26:43;3.83;;;1.30;;
44919;SDS011;30655;53.094;6.072;2022-09-21T11:30:04;2.85;;;0.90;;
44919;SDS011;30655;53.094;6.072;2022-09-21T11:33:18;3.72;;;1.02;;
44919;SDS011;30655;53.094;6.072;2022-09-21T11:36:33;2.72;;;1.50;;
44919;SDS011;30655;53.094;6.072;2022-09-21T12:12:50;1.48;;;0.60;;
44919;SDS011;30655;53.094;6.072;2022-09-21T12:15:56;4.18;;;0.80;;
44919;SDS011;30655;53.094;6.072;2022-09-21T12:19:08;1.65;;;0.65;;
44919;SDS011;30655;53.094;6.072;2022-09-21T12:22:10;3.25;;;0.77;;
44919;SDS011;30655;53.094;6.072;2022-09-21T12:25:15;4.82;;;1.15;;
44919;SDS011;30655;53.094;6.072;2022-09-21T12:27:58;3.50;;;0.40;;
44919;SDS011;30655;53.094;6.072;2022-09-21T12:30:50;4.13;;;2.10;;
44919;SDS011;30655;53.094;6.072;2022-09-21T12:37:32;3.95;;;1.23;;
44919;SDS011;30655;53.094;6.072;2022-09-21T12:40:24;2.38;;;0.70;;
44919;SDS011;30655;53.094;6.072;2022-09-21T12:43:20;1.55;;;0.60;;
44919;SDS011;30655;53.094;6.072;2022-09-21T12:46:22;4.60;;;0.70;;
44919;SDS011;30655;53.094;6.072;2022-09-21T12:52:11;3.13;;;0.98;;
44919;SDS011;30655;53.094;6.072;2022-09-21T12:55:14;2.53;;;0.60;;
44919;SDS011;30655;53.094;6.072;2022-09-21T12:58:20;5.30;;;0.93;;
44919;SDS011;30655;53.094;6.072;2022-09-21T13:04:19;2.83;;;0.70;;
44919;SDS011;30655;53.094;6.072;2022-09-21T13:07:43;3.10;;;0.68;;
44919;SDS011;30655;53.094;6.072;2022-09-21T13:10:37;1.58;;;0.60;;
44919;SDS011;30655;53.094;6.072;2022-09-21T13:13:44;5.75;;;1.08;;
44919;SDS011;30655;53.094;6.072;2022-09-21T13:20:14;3.80;;;0.60;;
44919;SDS011;30655;53.094;6.072;2022-09-21T13:23:28;1.73;;;0.75;;
44919;SDS011;30655;53.094;6.072;2022-09-21T13:32:29;1.90;;;0.50;;
44919;SDS011;30655;53.094;6.072;2022-09-21T13:48:38;3.20;;;0.60;;
44919;SDS011;30655;53.094;6.072;2022-09-21T13:54:47;1.45;;;0.80;;
44919;SDS011;30655;53.094;6.072;2022-09-21T13:57:49;2.47;;;0.73;;
44919;SDS011;30655;53.094;6.072;2022-09-21T14:00:38;8.00;;;0.90;;
44919;SDS011;30655;53.094;6.072;2022-09-21T14:06:46;2.50;;;0.52;;
44919;SDS011;30655;53.094;6.072;2022-09-21T14:09:42;3.13;;;0.75;;
44919;SDS011;30655;53.094;6.072;2022-09-21T14:29:31;2.70;;;0.60;;
44919;SDS011;30655;53.094;6.072;2022-09-21T14:32:44;2.08;;;0.55;;
44919;SDS011;30655;53.094;6.072;2022-09-21T14:35:55;1.23;;;0.50;;
44919;SDS011;30655;53.094;6.072;2022-09-21T14:45:52;2.95;;;0.90;;
44919;SDS011;30655;53.094;6.072;2022-09-21T14:49:12;1.38;;;0.80;;
44919;SDS011;30655;53.094;6.072;2022-09-21T14:52:29;2.67;;;0.88;;
44919;SDS011;30655;53.094;6.072;2022-09-21T14:55:48;2.53;;;0.60;;
44919;SDS011;30655;53.094;6.072;2022-09-21T14:58:52;3.53;;;0.70;;
44919;SDS011;30655;53.094;6.072;2022-09-21T15:12:05;1.42;;;0.88;;
44919;SDS011;30655;53.094;6.072;2022-09-21T15:18:00;2.00;;;1.20;;
44919;SDS011;30655;53.094;6.072;2022-09-21T15:20:59;1.88;;;0.50;;
44919;SDS011;30655;53.094;6.072;2022-09-21T15:34:05;2.97;;;0.80;;
44919;SDS011;30655;53.094;6.072;2022-09-21T15:37:07;3.17;;;0.90;;
44919;SDS011;30655;53.094;6.072;2022-09-21T15:39:40;2.45;;;0.70;;
44919;SDS011;30655;53.094;6.072;2022-09-21T15:42:23;3.50;;;0.57;;
44919;SDS011;30655;53.094;6.072;2022-09-21T15:44:53;1.83;;;0.68;;
44919;SDS011;30655;53.094;6.072;2022-09-21T15:47:35;3.00;;;0.63;;
44919;SDS011;30655;53.094;6.072;2022-09-21T15:50:03;1.08;;;0.50;;
44919;SDS011;30655;53.094;6.072;2022-09-21T15:52:31;1.25;;;0.50;;
44919;SDS011;30655;53.094;6.072;2022-09-21T15:55:05;2.42;;;0.85;;
44919;SDS011;30655;53.094;6.072;2022-09-21T15:57:37;1.75;;;0.75;;
44919;SDS011;30655;53.094;6.072;2022-09-21T16:00:20;1.25;;;0.57;;
44919;SDS011;30655;53.094;6.072;2022-09-21T16:02:57;1.42;;;0.68;;
44919;SDS011;30655;53.094;6.072;2022-09-21T16:05:28;3.00;;;0.80;;
44919;SDS011;30655;53.094;6.072;2022-09-21T16:08:03;2.22;;;0.90;;
44919;SDS011;30655;53.094;6.072;2022-09-21T16:10:36;1.65;;;0.57;;
44919;SDS011;30655;53.094;6.072;2022-09-21T16:13:10;1.73;;;0.80;;
44919;SDS011;30655;53.094;6.072;2022-09-21T16:15:43;1.88;;;1.20;;
44919;SDS011;30655;53.094;6.072;2022-09-21T16:18:30;1.83;;;0.60;;
44919;SDS011;30655;53.094;6.072;2022-09-21T16:21:08;4.30;;;0.90;;
44919;SDS011;30655;53.094;6.072;2022-09-21T16:23:41;2.03;;;0.80;;
44919;SDS011;30655;53.094;6.072;2022-09-21T16:26:15;1.63;;;1.00;;
44919;SDS011;30655;53.094;6.072;2022-09-21T16:28:44;4.38;;;1.00;;
44919;SDS011;30655;53.094;6.072;2022-09-21T16:31:31;2.75;;;0.73;;
44919;SDS011;30655;53.094;6.072;2022-09-21T16:34:01;2.90;;;0.88;;
44919;SDS011;30655;53.094;6.072;2022-09-21T16:36:37;6.25;;;1.17;;
44919;SDS011;30655;53.094;6.072;2022-09-21T16:39:07;2.58;;;0.70;;
44919;SDS011;30655;53.094;6.072;2022-09-21T16:41:49;2.88;;;0.68;;
44919;SDS011;30655;53.094;6.072;2022-09-21T16:44:19;5.40;;;1.10;;
44919;SDS011;30655;53.094;6.072;2022-09-21T16:46:51;3.13;;;0.80;;
44919;SDS011;30655;53.094;6.072;2022-09-21T16:56:34;6.82;;;1.38;;
44919;SDS011;30655;53.094;6.072;2022-09-21T17:00:07;3.63;;;1.15;;
44919;SDS011;30655;53.094;6.072;2022-09-21T17:06:43;4.88;;;0.80;;
44919;SDS011;30655;53.094;6.072;2022-09-21T17:09:43;4.45;;;0.80;;
44919;SDS011;30655;53.094;6.072;2022-09-21T17:13:15;2.83;;;1.73;;
44919;SDS011;30655;53.094;6.072;2022-09-21T17:15:52;5.60;;;1.13;;
44919;SDS011;30655;53.094;6.072;2022-09-21T17:18:23;7.88;;;1.30;;
44919;SDS011;30655;53.094;6.072;2022-09-21T17:20:52;2.35;;;1.17;;
44919;SDS011;30655;53.094;6.072;2022-09-21T17:23:19;3.42;;;0.90;;
44919;SDS011;30655;53.094;6.072;2022-09-21T17:25:48;4.28;;;1.05;;
44919;SDS011;30655;53.094;6.072;2022-09-21T17:28:17;3.42;;;0.95;;
44919;SDS011;30655;53.094;6.072;2022-09-21T17:30:49;5.55;;;1.10;;
44919;SDS011;30655;53.094;6.072;2022-09-21T17:33:16;4.32;;;1.40;;
44919;SDS011;30655;53.094;6.072;2022-09-21T17:39:07;4.60;;;1.25;;
44919;SDS011;30655;53.094;6.072;2022-09-21T17:41:59;7.50;;;1.42;;
44919;SDS011;30655;53.094;6.072;2022-09-21T17:45:12;4.45;;;1.50;;
44919;SDS011;30655;53.094;6.072;2022-09-21T17:48:47;4.65;;;1.08;;
44919;SDS011;30655;53.094;6.072;2022-09-21T17:51:45;7.47;;;1.15;;
44919;SDS011;30655;53.094;6.072;2022-09-21T18:00:58;8.90;;;1.70;;
44919;SDS011;30655;53.094;6.072;2022-09-21T18:03:31;7.10;;;2.08;;
44919;SDS011;30655;53.094;6.072;2022-09-21T18:06:00;5.88;;;1.70;;
44919;SDS011;30655;53.094;6.072;2022-09-21T18:08:39;6.68;;;1.70;;
44919;SDS011;30655;53.094;6.072;2022-09-21T18:11:13;7.15;;;3.35;;
44919;SDS011;30655;53.094;6.072;2022-09-21T18:13:58;8.95;;;4.40;;
44919;SDS011;30655;53.094;6.072;2022-09-21T18:16:38;22.38;;;11.02;;
44919;SDS011;30655;53.094;6.072;2022-09-21T18:22:05;20.48;;;8.93;;
44919;SDS011;30655;53.094;6.072;2022-09-21T18:24:39;45.75;;;16.55;;
44919;SDS011;30655;53.094;6.072;2022-09-21T18:27:08;34.42;;;12.30;;
44919;SDS011;30655;53.094;6.072;2022-09-21T18:29:40;23.88;;;8.73;;
44919;SDS011;30655;53.094;6.072;2022-09-21T18:32:16;15.98;;;5.25;;
44919;SDS011;30655;53.094;6.072;2022-09-21T18:35:06;4.78;;;2.17;;
44919;SDS011;30655;53.094;6.072;2022-09-21T18:37:44;13.82;;;4.80;;
44919;SDS011;30655;53.094;6.072;2022-09-21T18:40:20;12.88;;;5.45;;
44919;SDS011;30655;53.094;6.072;2022-09-21T18:42:55;15.82;;;5.88;;
44919;SDS011;30655;53.094;6.072;2022-09-21T18:45:32;16.17;;;6.32;;
44919;SDS011;30655;53.094;6.072;2022-09-21T18:48:10;16.35;;;7.85;;
44919;SDS011;30655;53.094;6.072;2022-09-21T18:50:46;25.60;;;8.93;;
44919;SDS011;30655;53.094;6.072;2022-09-21T18:53:21;25.75;;;8.55;;
44919;SDS011;30655;53.094;6.072;2022-09-21T18:55:56;18.15;;;6.90;;
44919;SDS011;30655;53.094;6.072;2022-09-21T18:58:24;15.30;;;5.25;;
44919;SDS011;30655;53.094;6.072;2022-09-21T19:00:55;21.08;;;5.97;;
44919;SDS011;30655;53.094;6.072;2022-09-21T19:03:25;9.13;;;5.00;;
44919;SDS011;30655;53.094;6.072;2022-09-21T19:05:57;8.38;;;4.18;;
44919;SDS011;30655;53.094;6.072;2022-09-21T19:08:38;12.30;;;4.63;;
44919;SDS011;30655;53.094;6.072;2022-09-21T19:11:11;8.52;;;4.22;;
44919;SDS011;30655;53.094;6.072;2022-09-21T19:13:50;10.57;;;5.43;;
44919;SDS011;30655;53.094;6.072;2022-09-21T19:16:31;10.55;;;4.00;;
44919;SDS011;30655;53.094;6.072;2022-09-21T19:19:06;6.80;;;4.38;;
44919;SDS011;30655;53.094;6.072;2022-09-21T19:21:43;7.65;;;4.10;;
44919;SDS011;30655;53.094;6.072;2022-09-21T19:24:17;8.23;;;4.20;;
44919;SDS011;30655;53.094;6.072;2022-09-21T19:26:52;9.40;;;4.53;;
44919;SDS011;30655;53.094;6.072;2022-09-21T19:29:41;8.98;;;3.63;;
44919;SDS011;30655;53.094;6.072;2022-09-21T19:32:20;16.08;;;4.45;;
44919;SDS011;30655;53.094;6.072;2022-09-21T19:34:55;11.93;;;4.47;;
44919;SDS011;30655;53.094;6.072;2022-09-21T19:37:37;9.15;;;3.63;;
44919;SDS011;30655;53.094;6.072;2022-09-21T19:40:05;9.98;;;3.28;;
44919;SDS011;30655;53.094;6.072;2022-09-21T19:42:38;10.02;;;3.75;;
44919;SDS011;30655;53.094;6.072;2022-09-21T19:45:14;7.55;;;4.20;;
44919;SDS011;30655;53.094;6.072;2022-09-21T19:47:56;12.90;;;4.30;;
44919;SDS011;30655;53.094;6.072;2022-09-21T19:50:30;6.80;;;3.83;;
44919;SDS011;30655;53.094;6.072;2022-09-21T19:53:07;7.45;;;4.30;;
44919;SDS011;30655;53.094;6.072;2022-09-21T19:55:37;5.13;;;3.17;;
44919;SDS011;30655;53.094;6.072;2022-09-21T19:58:08;8.95;;;3.58;;
44919;SDS011;30655;53.094;6.072;2022-09-21T20:00:42;9.02;;;3.85;;
44919;SDS011;30655;53.094;6.072;2022-09-21T20:03:15;11.48;;;3.70;;
44919;SDS011;30655;53.094;6.072;2022-09-21T20:05:55;5.57;;;3.28;;
44919;SDS011;30655;53.094;6.072;2022-09-21T20:08:39;8.60;;;3.20;;
44919;SDS011;30655;53.094;6.072;2022-09-21T20:11:12;8.55;;;3.03;;
44919;SDS011;30655;53.094;6.072;2022-09-21T20:13:50;9.77;;;3.05;;
44919;SDS011;30655;53.094;6.072;2022-09-21T20:16:29;5.53;;;2.90;;
44919;SDS011;30655;53.094;6.072;2022-09-21T20:19:08;6.18;;;3.45;;
44919;SDS011;30655;53.094;6.072;2022-09-21T20:21:43;5.45;;;3.45;;
44919;SDS011;30655;53.094;6.072;2022-09-21T20:24:16;6.20;;;2.92;;
44919;SDS011;30655;53.094;6.072;2022-09-21T20:26:46;9.23;;;3.47;;
44919;SDS011;30655;53.094;6.072;2022-09-21T20:29:16;8.13;;;3.65;;
44919;SDS011;30655;53.094;6.072;2022-09-21T20:31:44;6.15;;;2.92;;
44919;SDS011;30655;53.094;6.072;2022-09-21T20:34:13;8.95;;;3.90;;
44919;SDS011;30655;53.094;6.072;2022-09-21T20:36:41;10.20;;;3.75;;
44919;SDS011;30655;53.094;6.072;2022-09-21T20:39:08;5.32;;;3.50;;
44919;SDS011;30655;53.094;6.072;2022-09-21T20:44:08;6.25;;;3.60;;
44919;SDS011;30655;53.094;6.072;2022-09-21T20:46:37;4.68;;;3.65;;
44919;SDS011;30655;53.094;6.072;2022-09-21T20:49:04;7.55;;;3.75;;
44919;SDS011;30655;53.094;6.072;2022-09-21T20:51:34;7.03;;;3.95;;
44919;SDS011;30655;53.094;6.072;2022-09-21T20:54:02;5.93;;;3.45;;
44919;SDS011;30655;53.094;6.072;2022-09-21T20:56:29;8.55;;;4.10;;
44919;SDS011;30655;53.094;6.072;2022-09-21T20:58:58;8.93;;;4.28;;
44919;SDS011;30655;53.094;6.072;2022-09-21T21:01:25;7.18;;;3.83;;
44919;SDS011;30655;53.094;6.072;2022-09-21T21:03:53;8.32;;;3.55;;
44919;SDS011;30655;53.094;6.072;2022-09-21T21:06:21;12.20;;;4.40;;
44919;SDS011;30655;53.094;6.072;2022-09-21T21:08:51;9.00;;;4.40;;
44919;SDS011;30655;53.094;6.072;2022-09-21T21:11:21;9.02;;;4.20;;
44919;SDS011;30655;53.094;6.072;2022-09-21T21:13:48;9.00;;;3.83;;
44919;SDS011;30655;53.094;6.072;2022-09-21T21:16:14;8.18;;;4.05;;
44919;SDS011;30655;53.094;6.072;2022-09-21T21:18:41;8.88;;;4.20;;
44919;SDS011;30655;53.094;6.072;2022-09-21T21:21:08;6.07;;;3.97;;
44919;SDS011;30655;53.094;6.072;2022-09-21T21:23:35;6.03;;;3.10;;
44919;SDS011;30655;53.094;6.072;2022-09-21T21:26:04;6.25;;;3.58;;
44919;SDS011;30655;53.094;6.072;2022-09-21T21:28:32;8.68;;;3.35;;
44919;SDS011;30655;53.094;6.072;2022-09-21T21:30:59;8.02;;;3.65;;
44919;SDS011;30655;53.094;6.072;2022-09-21T21:33:31;8.82;;;3.17;;
44919;SDS011;30655;53.094;6.072;2022-09-21T21:36:01;9.98;;;3.63;;
44919;SDS011;30655;53.094;6.072;2022-09-21T21:38:29;5.38;;;3.58;;
44919;SDS011;30655;53.094;6.072;2022-09-21T21:40:56;8.23;;;4.07;;
44919;SDS011;30655;53.094;6.072;2022-09-21T21:43:24;4.57;;;3.35;;
44919;SDS011;30655;53.094;6.072;2022-09-21T21:45:57;6.88;;;3.40;;
44919;SDS011;30655;53.094;6.072;2022-09-21T21:48:29;6.63;;;3.63;;
44919;SDS011;30655;53.094;6.072;2022-09-21T21:50:59;4.05;;;3.10;;
44919;SDS011;30655;53.094;6.072;2022-09-21T21:53:27;4.35;;;3.63;;
44919;SDS011;30655;53.094;6.072;2022-09-21T21:56:00;5.55;;;4.80;;
44919;SDS011;30655;53.094;6.072;2022-09-21T21:58:30;5.75;;;4.75;;
44919;SDS011;30655;53.094;6.072;2022-09-21T22:01:04;5.63;;;4.38;;
44919;SDS011;30655;53.094;6.072;2022-09-21T22:03:32;4.85;;;4.00;;
44919;SDS011;30655;53.094;6.072;2022-09-21T22:05:59;6.40;;;4.10;;
44919;SDS011;30655;53.094;6.072;2022-09-21T22:08:28;6.28;;;4.97;;
44919;SDS011;30655;53.094;6.072;2022-09-21T22:10:55;8.15;;;5.85;;
44919;SDS011;30655;53.094;6.072;2022-09-21T22:13:22;8.88;;;7.25;;
44919;SDS011;30655;53.094;6.072;2022-09-21T22:15:53;9.07;;;6.68;;
44919;SDS011;30655;53.094;6.072;2022-09-21T22:18:20;12.52;;;6.95;;
44919;SDS011;30655;53.094;6.072;2022-09-21T22:20:46;6.78;;;5.80;;
44919;SDS011;30655;53.094;6.072;2022-09-21T22:23:13;8.15;;;4.80;;
44919;SDS011;30655;53.094;6.072;2022-09-21T22:25:40;6.88;;;4.75;;
44919;SDS011;30655;53.094;6.072;2022-09-21T22:28:07;6.47;;;4.20;;
44919;SDS011;30655;53.094;6.072;2022-09-21T22:30:34;4.90;;;3.90;;
44919;SDS011;30655;53.094;6.072;2022-09-21T22:33:02;6.57;;;3.92;;
44919;SDS011;30655;53.094;6.072;2022-09-21T22:35:29;5.32;;;4.70;;
44919;SDS011;30655;53.094;6.072;2022-09-21T22:37:57;7.68;;;4.80;;
44919;SDS011;30655;53.094;6.072;2022-09-21T22:40:24;4.38;;;3.88;;
44919;SDS011;30655;53.094;6.072;2022-09-21T22:42:51;6.63;;;4.07;;
44919;SDS011;30655;53.094;6.072;2022-09-21T22:45:18;5.57;;;4.20;;
44919;SDS011;30655;53.094;6.072;2022-09-21T22:47:44;10.20;;;3.95;;
44919;SDS011;30655;53.094;6.072;2022-09-21T22:50:13;3.95;;;3.38;;
44919;SDS011;30655;53.094;6.072;2022-09-21T22:52:40;5.70;;;3.60;;
44919;SDS011;30655;53.094;6.072;2022-09-21T22:55:07;5.55;;;3.70;;
44919;SDS011;30655;53.094;6.072;2022-09-21T22:57:35;4.93;;;3.65;;
44919;SDS011;30655;53.094;6.072;2022-09-21T23:00:02;15.35;;;3.60;;
44919;SDS011;30655;53.094;6.072;2022-09-21T23:02:30;4.43;;;3.40;;
44919;SDS011;30655;53.094;6.072;2022-09-21T23:04:56;4.57;;;4.13;;
44919;SDS011;30655;53.094;6.072;2022-09-21T23:07:25;3.72;;;3.42;;
44919;SDS011;30655;53.094;6.072;2022-09-21T23:09:51;4.93;;;3.58;;
44919;SDS011;30655;53.094;6.072;2022-09-21T23:12:18;4.97;;;4.03;;
44919;SDS011;30655;53.094;6.072;2022-09-21T23:14:45;6.50;;;3.90;;
44919;SDS011;30655;53.094;6.072;2022-09-21T23:17:12;6.43;;;4.00;;
44919;SDS011;30655;53.094;6.072;2022-09-21T23:19:40;6.35;;;3.25;;
44919;SDS011;30655;53.094;6.072;2022-09-21T23:22:06;5.90;;;3.53;;
44919;SDS011;30655;53.094;6.072;2022-09-21T23:24:35;3.85;;;3.55;;
44919;SDS011;30655;53.094;6.072;2022-09-21T23:27:02;3.92;;;3.53;;
44919;SDS011;30655;53.094;6.072;2022-09-21T23:29:29;6.15;;;3.83;;